Terminal Aerodrome Forecast
Issued by NWS Grand Forks, ND

Home | Current Version | Previous Version | Graphics & Text | Print | Product List | Glossary On
Versions: 1 2 3 4 5 6 7 8 9 10 11 12 13 14
000
FTUS43 KFGF 140900 AAA
TAFGFK
TAF AMD
KGFK 140905Z 1409/1506 32014G20KT P6SM BKN020
      TEMPO 1409/1413 SCT020
     FM141400 33014G20KT P6SM BKN025
     FM141700 33016G26KT P6SM BKN035
     FM150100 33010KT P6SM SCT050=

USA.gov is the U.S. government's official web portal to all federal, state and local government web resources and services.